LICCLMML

Guest
Details From LICC - Catania Fontanarossa
To LMML - La Valette Luqa
Flight Number -
Tags generated
Created
Modified
Stats Distance 101 nm / 187 km
Max Altitude 0 ft / 0 m
Waypoints 3
Social Downloads 2
Likes 0
Share VATSIM

Download

Looking for another format? Having issues loading an existing format? Contact us
Advertisement - Login to hide

Notes

Basic altitude profile: - Ascent Rate: 2500ft/min - Ascent Speed: 250kts - Cruise Altitude: 35000ft - Cruise Speed: 420kts - Descent Rate: 1500ft/min - Descent Speed: 250kts Options: - Use NATs: yes - Use PACOTS: yes - Use low airways: yes - Use high airways: no

Route

LICC CTF LMML

ID Type Via Altitude Latitude Longitude Leg Dist Tot Dist Heading (true) Name
O LICC APT - 0 ft / 0 m 37.46678˚ 15.06640˚ - 0 nm - Catania Fontanarossa
CTF VOR - 0 ft / 0 m 37.46443˚ 15.06223˚ 0 nm 0 nm 235° / 235° CATANIA FONTANAROSSA VOR-DME
O LMML APT - 0 ft / 0 m 35.84948˚ 14.48184˚ 100 nm 101 nm 196° / 196° La Valette Luqa

Altitude Profile

Advertisement - Login to hide

LICC

Details ICAO LICC (CTA)
Name Catania Fontanarossa
Region Italy
Timezone Europe/Rome (UTC+1.0)
Stats Elevation 39 ft / 12 m (AMSL)
Location 37.466779° 15.066401°
Runways 1
Magnetic Variation 3.216° E

METAR

LICC 161420Z 31008KT 6000 -RA BKN060 15/13 Q1008

Decode

TAF

TAF LICC 161100Z 1612/1712 29012KT 9999 SCT030 TEMPO 1612/1621 SHRA

Decode

Departure Runways

ID Width Length Bearing (true) Bearing (mag) Surface Threshold Offset Overrun Length
08 148 ft / 45 m 7,985 ft / 2,434 m 83.94° 80.72° Asphalt 312 ft / 95 m 0 ft / 0 m
26 148 ft / 45 m 7,985 ft / 2,434 m 263.95° 260.73° Asphalt 279 ft / 85 m 0 ft / 0 m

LMML

Details ICAO LMML (MLA)
Name La Valette Luqa
Region Malta
Timezone Europe/Malta (UTC+1.0)
Stats Elevation 300 ft / 91 m (AMSL)
Location 35.849477° 14.481836°
Runways 2
Magnetic Variation 3.021° E

METAR

LMML 161415Z 30013KT 9999 FEW018 SCT025 16/11 Q1009 NOSIG

Decode

TAF

Not found

Destination Runways

ID Width Length Bearing (true) Bearing (mag) Surface Threshold Offset Overrun Length
14 197 ft / 60 m 11,635 ft / 3,546 m 134.83° 131.81° Asphalt 0 ft / 0 m 420 ft / 128 m
24 148 ft / 45 m 7,789 ft / 2,374 m 234.37° 231.35° Asphalt 410 ft / 125 m 0 ft / 0 m
32 197 ft / 60 m 11,635 ft / 3,546 m 314.85° 311.83° Asphalt 817 ft / 249 m 0 ft / 0 m
6 148 ft / 45 m 7,789 ft / 2,374 m 54.35° 51.33° Asphalt 400 ft / 122 m 0 ft / 0 m

Approach Navaids

Runway Type Ident Frequency Range Bearing (true) Bearing (mag) Slope Elevation
14 Localiser LQ 109.70 MHz 18 nm / 33 km 134.95° 131.93° - 230 ft / 70 m (AMSL)
14 Glidescope LQ 109.70 MHz 10 nm / 19 km 134.84° 131.82° 2.85° 256 ft / 78 m (AMSL)
32 Localiser LM 110.50 MHz 18 nm / 33 km 314.79° 311.77° - 256 ft / 78 m (AMSL)
32 Glidescope LM 110.50 MHz 10 nm / 19 km 314.84° 311.82° 2.85° 230 ft / 70 m (AMSL)

Popular Alternatives